Vidsel, Sweden

4:35 PM CEST on July 30, 2014 (GMT +0200)
Vidsel Air Base (ESPE) Elev 597 ft | 65.88 °N, 20.14 °E | Change Station

Current weather conditions updated 15 minutes ago

Light Drizzle
Light Drizzle
63 °F
Feels Like 63 °F
N
10
Wind Variable Wind from ESE

Tomorrow is forecast to be Much Warmer than today. Showers.

Today
High -- | Low -- °F
--% Chance of Precip.
Yesterday
High -- | Low -- °F
Precip. -- in
3:18 AM 10:10 PM
Waxing Crescent, 12% visible
Pressure 29.74 in
Visibility 6.2 miles
Clouds Few 2500 ft
Overcast 8200 ft
Dew Point 55 °F
Humidity 77%
Rainfall 0.00 in
Snow Depth Not available.
UV 1 out of 12
Pollen Not available.
Air Quality Not available.
Flu Activity Not available.
METAR ESPE 301420Z AUTO 12009KT 9999NDV -DZ FEW025/// OVC082/// 17/13 Q1007

More Conditions Fewer Conditions

Pressure 29.74 in
Visibility 6.2 miles
Clouds Few 2500 ft
Overcast 8200 ft
Dew Point 55 °F
Humidity 77%
Rainfall 0.00 in
Snow Depth Not available.
UV 1 out of 12
Pollen Not available.
Air Quality Not available.
Flu Activity Not available.
METAR ESPE 301420Z AUTO 12009KT 9999NDV -DZ FEW025/// OVC082/// 17/13 Q1007

More Conditions Fewer Conditions

10-Day Weather Forecast

Almanac

Astronomy

Jul. 30, 2014 Rise Set
Actual Time 3:18 AM CEST 10:10 PM CEST
Civil Twilight 1:18 AM CEST 12:13 AM CEST
Nautical Twilight Sun does not rise Sun does not rise
Astronomical Twilight Sun does not rise Sun does not rise
Moon 8:29 AM CEST 9:37 PM CEST
Length of Visible Light 22h 55m
Length of Day
18h 52m
Tomorrow will be 7m 46s shorter.
Waxing Crescent, 12% of the Moon is Illuminated
Today
Waxing Crescent
Aug 3
First Quarter
Aug 10
Full
Aug 17
Last Quarter
Aug 25
New

Yesterday's Extremes

Country Highs Country Lows

Community

WunderPhotos

Upload Photos

1,739,093 photos uploaded!

Nearby

Snow Depth

Not available.

Earthquake Activity

City Distance Mag. Time & Date
No recent earthquake activity has been reported nearby.
Minimum magnitude displayed is 2.5.

Coastal Water Temperatures

Place Temperature
No Stations Reporting

Nearby Weather Stations

There are no personal weather stations in this area.